Christiana, Delaware
Current Conditions -  °F | °C
As of 6:51 AM on Monday 24 Nov 2014 (Local Time) from KILG Reporting Station
Broken Clouds Broken Clouds  
Wind Chill: 67°   Ceiling: 1900
Heat Index: 67°   Visibility: 10mi
Dew Point: 62°   Wind: 21mph
Humidity: 84%   Direction: 200°SSW
Pressure: 29.68"   Gusts: 30mph
Location:  39.6223°N, 75.7264°W
Report Text: KILG 241151Z AUTO 20018G26KT 10SM BKN019 BKN029 19/17 A2968 RMK AO2 PK WND 18028/1118 SLP051 60029 70036 T01940167 10194 20133 58004
Loading
Personal Weather Stations






























Interactive Weather Map New forecast layout! Learn more

10-Day Weather Forecast

Advertisements
Track Severe Weather on mobile